sensor_id;sensor_type;location;lat;lon;timestamp;pressure;altitude;pressure_sealevel;temperature;humidity
45441;BME280;31189;38.790;-77.084;2022-12-07T00:01:07;102121.52;;;7.63;100.00
45441;BME280;31189;38.790;-77.084;2022-12-07T00:03:38;102116.55;;;7.40;100.00
45441;BME280;31189;38.790;-77.084;2022-12-07T00:06:07;102112.57;;;8.41;100.00
45441;BME280;31189;38.790;-77.084;2022-12-07T00:08:36;102119.73;;;8.39;100.00
45441;BME280;31189;38.790;-77.084;2022-12-07T00:11:06;102130.00;;;9.20;100.00
45441;BME280;31189;38.790;-77.084;2022-12-07T00:13:36;102135.53;;;8.70;100.00
45441;BME280;31189;38.790;-77.084;2022-12-07T00:16:07;102139.70;;;8.59;100.00
45441;BME280;31189;38.790;-77.084;2022-12-07T00:18:36;102142.57;;;8.54;100.00
45441;BME280;31189;38.790;-77.084;2022-12-07T00:21:06;102137.72;;;9.95;100.00
45441;BME280;31189;38.790;-77.084;2022-12-07T00:23:35;102127.17;;;8.95;100.00
45441;BME280;31189;38.790;-77.084;2022-12-07T00:26:05;102131.38;;;7.51;100.00
45441;BME280;31189;38.790;-77.084;2022-12-07T00:28:33;102132.33;;;8.29;100.00
45441;BME280;31189;38.790;-77.084;2022-12-07T00:31:03;102132.50;;;8.36;100.00
45441;BME280;31189;38.790;-77.084;2022-12-07T00:33:32;102128.33;;;9.11;100.00
45441;BME280;31189;38.790;-77.084;2022-12-07T00:36:00;102138.64;;;7.57;100.00
45441;BME280;31189;38.790;-77.084;2022-12-07T00:38:30;102132.00;;;7.89;100.00
45441;BME280;31189;38.790;-77.084;2022-12-07T00:41:00;102128.47;;;8.04;100.00
45441;BME280;31189;38.790;-77.084;2022-12-07T00:43:28;102132.06;;;7.56;100.00
45441;BME280;31189;38.790;-77.084;2022-12-07T00:45:57;102130.48;;;8.61;100.00
45441;BME280;31189;38.790;-77.084;2022-12-07T00:48:25;102129.86;;;8.25;100.00
45441;BME280;31189;38.790;-77.084;2022-12-07T00:50:52;102123.73;;;8.06;100.00
45441;BME280;31189;38.790;-77.084;2022-12-07T00:53:20;102122.67;;;6.91;100.00
45441;BME280;31189;38.790;-77.084;2022-12-07T00:55:48;102118.02;;;7.83;100.00
45441;BME280;31189;38.790;-77.084;2022-12-07T00:58:16;102120.85;;;7.97;100.00
45441;BME280;31189;38.790;-77.084;2022-12-07T01:00:44;102113.84;;;7.72;100.00
45441;BME280;31189;38.790;-77.084;2022-12-07T01:03:13;102120.15;;;8.76;100.00
45441;BME280;31189;38.790;-77.084;2022-12-07T01:05:49;102120.17;;;8.33;100.00
45441;BME280;31189;38.790;-77.084;2022-12-07T01:08:18;102115.80;;;9.24;100.00
45441;BME280;31189;38.790;-77.084;2022-12-07T01:10:46;102113.48;;;8.61;100.00
45441;BME280;31189;38.790;-77.084;2022-12-07T01:13:14;102111.18;;;8.47;100.00
45441;BME280;31189;38.790;-77.084;2022-12-07T01:15:43;102102.22;;;8.92;100.00
45441;BME280;31189;38.790;-77.084;2022-12-07T01:18:11;102101.68;;;8.00;100.00
45441;BME280;31189;38.790;-77.084;2022-12-07T01:20:39;102098.60;;;9.41;100.00
45441;BME280;31189;38.790;-77.084;2022-12-07T01:23:07;102100.17;;;8.62;100.00
45441;BME280;31189;38.790;-77.084;2022-12-07T01:25:35;102098.22;;;8.51;100.00
45441;BME280;31189;38.790;-77.084;2022-12-07T01:28:03;102095.54;;;8.30;100.00
45441;BME280;31189;38.790;-77.084;2022-12-07T01:30:31;102092.92;;;9.29;100.00
45441;BME280;31189;38.790;-77.084;2022-12-07T01:32:59;102090.75;;;9.66;100.00
45441;BME280;31189;38.790;-77.084;2022-12-07T01:35:27;102086.38;;;10.65;100.00
45441;BME280;31189;38.790;-77.084;2022-12-07T01:37:55;102091.67;;;10.05;100.00
45441;BME280;31189;38.790;-77.084;2022-12-07T01:40:23;102088.62;;;9.32;100.00
45441;BME280;31189;38.790;-77.084;2022-12-07T01:42:50;102090.02;;;9.26;100.00
45441;BME280;31189;38.790;-77.084;2022-12-07T01:45:51;102094.90;;;10.18;100.00
45441;BME280;31189;38.790;-77.084;2022-12-07T01:48:22;102097.91;;;9.41;100.00
45441;BME280;31189;38.790;-77.084;2022-12-07T01:50:53;102096.99;;;10.43;100.00
45441;BME280;31189;38.790;-77.084;2022-12-07T01:53:26;102088.37;;;10.77;100.00
45441;BME280;31189;38.790;-77.084;2022-12-07T01:55:57;102085.18;;;10.40;100.00
45441;BME280;31189;38.790;-77.084;2022-12-07T01:58:25;102081.77;;;9.73;100.00
45441;BME280;31189;38.790;-77.084;2022-12-07T02:00:53;102072.45;;;8.91;100.00
45441;BME280;31189;38.790;-77.084;2022-12-07T02:03:25;102071.65;;;10.74;100.00
45441;BME280;31189;38.790;-77.084;2022-12-07T02:05:55;102071.01;;;9.73;100.00
45441;BME280;31189;38.790;-77.084;2022-12-07T02:08:23;102073.97;;;9.97;100.00
45441;BME280;31189;38.790;-77.084;2022-12-07T02:10:51;102077.45;;;9.13;100.00
45441;BME280;31189;38.790;-77.084;2022-12-07T02:13:22;102076.68;;;8.81;100.00
45441;BME280;31189;38.790;-77.084;2022-12-07T02:16:03;102078.73;;;9.68;100.00
45441;BME280;31189;38.790;-77.084;2022-12-07T02:18:43;102078.93;;;9.62;100.00
45441;BME280;31189;38.790;-77.084;2022-12-07T02:21:17;102083.04;;;8.15;100.00
45441;BME280;31189;38.790;-77.084;2022-12-07T02:24:11;102084.02;;;8.68;100.00
45441;BME280;31189;38.790;-77.084;2022-12-07T02:27:12;102076.25;;;8.63;100.00
45441;BME280;31189;38.790;-77.084;2022-12-07T02:29:47;102073.53;;;8.90;100.00
45441;BME280;31189;38.790;-77.084;2022-12-07T02:32:20;102075.00;;;9.02;100.00
45441;BME280;31189;38.790;-77.084;2022-12-07T02:34:54;102090.25;;;7.79;100.00
45441;BME280;31189;38.790;-77.084;2022-12-07T02:37:32;102096.07;;;8.63;100.00
45441;BME280;31189;38.790;-77.084;2022-12-07T02:40:07;102100.10;;;9.69;100.00
45441;BME280;31189;38.790;-77.084;2022-12-07T02:42:40;102099.45;;;8.89;100.00
45441;BME280;31189;38.790;-77.084;2022-12-07T02:45:14;102098.59;;;9.59;100.00
45441;BME280;31189;38.790;-77.084;2022-12-07T02:47:43;102098.84;;;9.86;100.00
45441;BME280;31189;38.790;-77.084;2022-12-07T02:50:12;102096.03;;;10.63;100.00
45441;BME280;31189;38.790;-77.084;2022-12-07T02:52:40;102094.41;;;8.30;100.00
45441;BME280;31189;38.790;-77.084;2022-12-07T02:55:08;102087.24;;;9.69;100.00
45441;BME280;31189;38.790;-77.084;2022-12-07T02:57:48;102088.36;;;9.19;100.00
45441;BME280;31189;38.790;-77.084;2022-12-07T03:00:21;102090.94;;;8.90;100.00
45441;BME280;31189;38.790;-77.084;2022-12-07T03:02:53;102096.24;;;9.89;100.00
45441;BME280;31189;38.790;-77.084;2022-12-07T03:05:37;102096.76;;;9.50;100.00
45441;BME280;31189;38.790;-77.084;2022-12-07T03:08:13;102099.59;;;9.80;100.00
45441;BME280;31189;38.790;-77.084;2022-12-07T03:10:53;102106.41;;;8.44;100.00
45441;BME280;31189;38.790;-77.084;2022-12-07T03:13:29;102100.46;;;8.41;100.00
45441;BME280;31189;38.790;-77.084;2022-12-07T03:16:03;102102.53;;;9.63;100.00
45441;BME280;31189;38.790;-77.084;2022-12-07T03:18:37;102101.30;;;9.74;100.00
45441;BME280;31189;38.790;-77.084;2022-12-07T03:21:09;102101.73;;;9.64;100.00
45441;BME280;31189;38.790;-77.084;2022-12-07T03:23:41;102089.93;;;9.40;100.00
45441;BME280;31189;38.790;-77.084;2022-12-07T03:26:12;102090.33;;;10.61;100.00
45441;BME280;31189;38.790;-77.084;2022-12-07T03:28:46;102087.51;;;10.20;100.00
45441;BME280;31189;38.790;-77.084;2022-12-07T03:31:18;102088.89;;;9.86;100.00
45441;BME280;31189;38.790;-77.084;2022-12-07T03:33:54;102085.54;;;10.50;100.00
45441;BME280;31189;38.790;-77.084;2022-12-07T03:36:29;102085.95;;;10.91;100.00
45441;BME280;31189;38.790;-77.084;2022-12-07T03:39:04;102085.18;;;11.32;100.00
45441;BME280;31189;38.790;-77.084;2022-12-07T03:41:37;102084.54;;;8.51;100.00
45441;BME280;31189;38.790;-77.084;2022-12-07T03:44:06;102077.40;;;9.10;100.00
45441;BME280;31189;38.790;-77.084;2022-12-07T03:46:42;102079.34;;;10.81;100.00
45441;BME280;31189;38.790;-77.084;2022-12-07T03:49:18;102082.61;;;10.55;100.00
45441;BME280;31189;38.790;-77.084;2022-12-07T03:51:54;102083.51;;;9.70;100.00
45441;BME280;31189;38.790;-77.084;2022-12-07T03:54:26;102084.24;;;10.78;100.00
45441;BME280;31189;38.790;-77.084;2022-12-07T03:56:58;102086.57;;;10.48;100.00
45441;BME280;31189;38.790;-77.084;2022-12-07T03:59:27;102085.11;;;10.07;100.00
45441;BME280;31189;38.790;-77.084;2022-12-07T04:01:57;102084.16;;;10.35;100.00
45441;BME280;31189;38.790;-77.084;2022-12-07T04:04:28;102086.01;;;10.97;100.00
45441;BME280;31189;38.790;-77.084;2022-12-07T04:06:57;102082.38;;;10.12;100.00
45441;BME280;31189;38.790;-77.084;2022-12-07T04:09:25;102078.49;;;10.61;100.00
45441;BME280;31189;38.790;-77.084;2022-12-07T04:11:53;102082.15;;;11.38;100.00
45441;BME280;31189;38.790;-77.084;2022-12-07T04:14:21;102076.71;;;10.71;100.00
45441;BME280;31189;38.790;-77.084;2022-12-07T04:16:51;102072.52;;;8.78;100.00
45441;BME280;31189;38.790;-77.084;2022-12-07T04:19:21;102070.44;;;10.29;100.00
45441;BME280;31189;38.790;-77.084;2022-12-07T04:21:50;102075.05;;;10.37;100.00
45441;BME280;31189;38.790;-77.084;2022-12-07T04:24:18;102073.43;;;10.55;100.00
45441;BME280;31189;38.790;-77.084;2022-12-07T04:26:47;102079.28;;;10.63;100.00
45441;BME280;31189;38.790;-77.084;2022-12-07T04:29:16;102082.69;;;11.56;100.00
45441;BME280;31189;38.790;-77.084;2022-12-07T04:31:45;102082.16;;;10.03;100.00
45441;BME280;31189;38.790;-77.084;2022-12-07T04:34:13;102084.09;;;9.80;100.00
45441;BME280;31189;38.790;-77.084;2022-12-07T04:36:42;102083.32;;;10.24;100.00
45441;BME280;31189;38.790;-77.084;2022-12-07T04:39:19;102080.19;;;10.97;100.00
45441;BME280;31189;38.790;-77.084;2022-12-07T04:41:47;102075.95;;;12.24;100.00
45441;BME280;31189;38.790;-77.084;2022-12-07T04:44:15;102071.83;;;10.95;100.00
45441;BME280;31189;38.790;-77.084;2022-12-07T04:46:44;102065.90;;;10.69;100.00
45441;BME280;31189;38.790;-77.084;2022-12-07T04:49:14;102062.78;;;11.81;100.00
45441;BME280;31189;38.790;-77.084;2022-12-07T04:51:43;102064.78;;;11.37;100.00
45441;BME280;31189;38.790;-77.084;2022-12-07T04:54:12;102063.00;;;11.68;100.00
45441;BME280;31189;38.790;-77.084;2022-12-07T04:56:40;102060.08;;;11.98;100.00
45441;BME280;31189;38.790;-77.084;2022-12-07T04:59:09;102059.23;;;10.90;100.00
45441;BME280;31189;38.790;-77.084;2022-12-07T05:01:37;102051.91;;;12.03;100.00
45441;BME280;31189;38.790;-77.084;2022-12-07T05:04:05;102053.36;;;10.61;100.00
45441;BME280;31189;38.790;-77.084;2022-12-07T05:06:33;102056.29;;;9.82;100.00
45441;BME280;31189;38.790;-77.084;2022-12-07T05:09:01;102053.50;;;9.85;100.00
45441;BME280;31189;38.790;-77.084;2022-12-07T05:11:29;102048.28;;;9.35;100.00
45441;BME280;31189;38.790;-77.084;2022-12-07T05:13:57;102041.25;;;10.87;100.00
45441;BME280;31189;38.790;-77.084;2022-12-07T05:16:25;102042.82;;;11.36;100.00
45441;BME280;31189;38.790;-77.084;2022-12-07T05:18:53;102041.54;;;11.13;100.00
45441;BME280;31189;38.790;-77.084;2022-12-07T05:21:21;102041.16;;;12.27;100.00
45441;BME280;31189;38.790;-77.084;2022-12-07T05:23:49;102045.72;;;10.62;100.00
45441;BME280;31189;38.790;-77.084;2022-12-07T05:26:17;102047.92;;;11.29;100.00
45441;BME280;31189;38.790;-77.084;2022-12-07T05:28:45;102047.36;;;10.93;100.00
45441;BME280;31189;38.790;-77.084;2022-12-07T05:31:16;102043.90;;;11.01;100.00
45441;BME280;31189;38.790;-77.084;2022-12-07T05:33:44;102042.68;;;10.81;100.00
45441;BME280;31189;38.790;-77.084;2022-12-07T05:36:13;102045.76;;;10.62;100.00
45441;BME280;31189;38.790;-77.084;2022-12-07T05:38:40;102055.20;;;10.74;100.00
45441;BME280;31189;38.790;-77.084;2022-12-07T05:41:09;102059.92;;;11.73;100.00
45441;BME280;31189;38.790;-77.084;2022-12-07T05:43:39;102061.93;;;11.55;100.00
45441;BME280;31189;38.790;-77.084;2022-12-07T05:46:07;102061.28;;;11.54;100.00
45441;BME280;31189;38.790;-77.084;2022-12-07T05:48:36;102056.02;;;12.02;100.00
45441;BME280;31189;38.790;-77.084;2022-12-07T05:51:04;102059.20;;;11.40;100.00
45441;BME280;31189;38.790;-77.084;2022-12-07T05:53:32;102061.44;;;12.27;100.00
45441;BME280;31189;38.790;-77.084;2022-12-07T05:56:00;102058.90;;;11.66;100.00
45441;BME280;31189;38.790;-77.084;2022-12-07T05:58:28;102060.18;;;12.99;100.00
45441;BME280;31189;38.790;-77.084;2022-12-07T06:00:55;102059.64;;;12.62;100.00
45441;BME280;31189;38.790;-77.084;2022-12-07T06:03:24;102056.83;;;13.50;100.00
45441;BME280;31189;38.790;-77.084;2022-12-07T06:05:52;102059.13;;;13.67;100.00
45441;BME280;31189;38.790;-77.084;2022-12-07T06:08:20;102056.77;;;13.09;100.00
45441;BME280;31189;38.790;-77.084;2022-12-07T06:10:48;102061.73;;;12.48;100.00
45441;BME280;31189;38.790;-77.084;2022-12-07T06:13:16;102065.46;;;13.86;100.00
45441;BME280;31189;38.790;-77.084;2022-12-07T06:15:43;102064.35;;;13.47;100.00
45441;BME280;31189;38.790;-77.084;2022-12-07T06:18:11;102066.32;;;13.62;100.00
45441;BME280;31189;38.790;-77.084;2022-12-07T06:20:39;102066.90;;;13.66;100.00
45441;BME280;31189;38.790;-77.084;2022-12-07T06:23:06;102071.28;;;14.20;100.00
45441;BME280;31189;38.790;-77.084;2022-12-07T06:25:35;102074.24;;;14.33;100.00
45441;BME280;31189;38.790;-77.084;2022-12-07T06:28:03;102064.79;;;14.05;100.00
45441;BME280;31189;38.790;-77.084;2022-12-07T06:30:31;102058.62;;;13.58;100.00
45441;BME280;31189;38.790;-77.084;2022-12-07T06:32:59;102048.54;;;13.99;100.00
45441;BME280;31189;38.790;-77.084;2022-12-07T06:35:27;102037.56;;;13.48;100.00
45441;BME280;31189;38.790;-77.084;2022-12-07T06:37:55;102042.24;;;12.30;100.00
45441;BME280;31189;38.790;-77.084;2022-12-07T06:40:23;102048.01;;;12.11;100.00
45441;BME280;31189;38.790;-77.084;2022-12-07T06:42:51;102038.79;;;12.91;100.00
45441;BME280;31189;38.790;-77.084;2022-12-07T06:45:19;102029.89;;;13.34;100.00
45441;BME280;31189;38.790;-77.084;2022-12-07T06:47:47;102038.02;;;12.38;100.00
45441;BME280;31189;38.790;-77.084;2022-12-07T06:50:15;102044.79;;;12.51;100.00
45441;BME280;31189;38.790;-77.084;2022-12-07T06:52:43;102046.43;;;13.00;100.00
45441;BME280;31189;38.790;-77.084;2022-12-07T06:55:11;102051.83;;;14.21;100.00
45441;BME280;31189;38.790;-77.084;2022-12-07T06:57:39;102051.29;;;13.01;100.00
45441;BME280;31189;38.790;-77.084;2022-12-07T07:00:08;102053.86;;;12.67;100.00
45441;BME280;31189;38.790;-77.084;2022-12-07T07:02:36;102058.20;;;12.88;100.00
45441;BME280;31189;38.790;-77.084;2022-12-07T07:05:04;102064.62;;;12.33;100.00
45441;BME280;31189;38.790;-77.084;2022-12-07T07:07:32;102066.39;;;13.11;100.00
45441;BME280;31189;38.790;-77.084;2022-12-07T07:10:00;102067.24;;;13.77;100.00
45441;BME280;31189;38.790;-77.084;2022-12-07T07:12:27;102075.81;;;14.20;100.00
45441;BME280;31189;38.790;-77.084;2022-12-07T07:14:55;102077.13;;;14.15;100.00
45441;BME280;31189;38.790;-77.084;2022-12-07T07:17:22;102076.97;;;14.26;100.00
45441;BME280;31189;38.790;-77.084;2022-12-07T07:19:51;102061.74;;;12.70;100.00
45441;BME280;31189;38.790;-77.084;2022-12-07T07:22:18;102056.40;;;13.57;100.00
45441;BME280;31189;38.790;-77.084;2022-12-07T07:24:46;102054.19;;;12.90;100.00
45441;BME280;31189;38.790;-77.084;2022-12-07T07:27:14;102054.21;;;13.01;100.00
45441;BME280;31189;38.790;-77.084;2022-12-07T07:29:42;102053.80;;;12.58;100.00
45441;BME280;31189;38.790;-77.084;2022-12-07T07:32:10;102052.22;;;11.07;100.00
45441;BME280;31189;38.790;-77.084;2022-12-07T07:34:39;102033.01;;;11.29;100.00
45441;BME280;31189;38.790;-77.084;2022-12-07T07:37:06;102030.21;;;10.53;100.00
45441;BME280;31189;38.790;-77.084;2022-12-07T07:39:34;102019.58;;;12.35;100.00
45441;BME280;31189;38.790;-77.084;2022-12-07T07:42:02;102007.74;;;12.28;100.00
45441;BME280;31189;38.790;-77.084;2022-12-07T07:44:30;102014.13;;;11.59;100.00
45441;BME280;31189;38.790;-77.084;2022-12-07T07:46:58;102022.76;;;11.70;100.00
45441;BME280;31189;38.790;-77.084;2022-12-07T07:49:26;102018.59;;;11.33;100.00
45441;BME280;31189;38.790;-77.084;2022-12-07T07:51:54;102013.07;;;11.21;100.00
45441;BME280;31189;38.790;-77.084;2022-12-07T07:54:21;102013.16;;;12.26;100.00
45441;BME280;31189;38.790;-77.084;2022-12-07T07:56:49;102014.56;;;13.08;100.00
45441;BME280;31189;38.790;-77.084;2022-12-07T07:59:18;102016.39;;;13.39;100.00
45441;BME280;31189;38.790;-77.084;2022-12-07T08:01:45;102015.60;;;13.59;100.00
45441;BME280;31189;38.790;-77.084;2022-12-07T08:04:13;102014.69;;;14.02;100.00
45441;BME280;31189;38.790;-77.084;2022-12-07T08:06:41;102019.65;;;13.84;100.00
45441;BME280;31189;38.790;-77.084;2022-12-07T08:09:09;102025.85;;;13.91;100.00
45441;BME280;31189;38.790;-77.084;2022-12-07T08:11:38;102023.93;;;14.25;100.00
45441;BME280;31189;38.790;-77.084;2022-12-07T08:14:05;102015.20;;;14.87;100.00
45441;BME280;31189;38.790;-77.084;2022-12-07T08:16:33;102015.24;;;14.45;100.00
45441;BME280;31189;38.790;-77.084;2022-12-07T08:19:00;102011.12;;;14.12;100.00
45441;BME280;31189;38.790;-77.084;2022-12-07T08:21:28;102015.04;;;14.27;100.00
45441;BME280;31189;38.790;-77.084;2022-12-07T08:23:57;102013.00;;;14.59;100.00
45441;BME280;31189;38.790;-77.084;2022-12-07T08:26:25;102009.09;;;14.85;100.00
45441;BME280;31189;38.790;-77.084;2022-12-07T08:28:53;102005.22;;;11.95;100.00
45441;BME280;31189;38.790;-77.084;2022-12-07T08:31:21;101998.61;;;13.19;100.00
45441;BME280;31189;38.790;-77.084;2022-12-07T08:33:49;102005.89;;;14.45;100.00
45441;BME280;31189;38.790;-77.084;2022-12-07T08:36:17;102001.55;;;14.77;100.00
45441;BME280;31189;38.790;-77.084;2022-12-07T08:38:45;101990.73;;;14.15;100.00
45441;BME280;31189;38.790;-77.084;2022-12-07T08:41:13;101985.41;;;14.76;100.00
45441;BME280;31189;38.790;-77.084;2022-12-07T08:43:41;101985.25;;;14.50;100.00
45441;BME280;31189;38.790;-77.084;2022-12-07T08:46:11;101985.84;;;13.42;100.00
45441;BME280;31189;38.790;-77.084;2022-12-07T08:48:45;101989.24;;;14.17;100.00
45441;BME280;31189;38.790;-77.084;2022-12-07T08:51:14;101989.90;;;14.36;100.00
45441;BME280;31189;38.790;-77.084;2022-12-07T08:53:43;101984.41;;;14.27;100.00
45441;BME280;31189;38.790;-77.084;2022-12-07T08:56:11;101979.63;;;13.64;100.00
45441;BME280;31189;38.790;-77.084;2022-12-07T08:58:39;101968.38;;;13.97;100.00
45441;BME280;31189;38.790;-77.084;2022-12-07T09:01:07;101962.66;;;13.58;100.00
45441;BME280;31189;38.790;-77.084;2022-12-07T09:03:35;101967.50;;;13.79;100.00
45441;BME280;31189;38.790;-77.084;2022-12-07T09:06:04;101964.62;;;13.51;100.00
45441;BME280;31189;38.790;-77.084;2022-12-07T09:08:34;101959.98;;;14.55;100.00
45441;BME280;31189;38.790;-77.084;2022-12-07T09:11:03;101958.48;;;14.12;100.00
45441;BME280;31189;38.790;-77.084;2022-12-07T09:13:31;101959.73;;;13.84;100.00
45441;BME280;31189;38.790;-77.084;2022-12-07T09:15:59;101956.25;;;12.30;100.00
45441;BME280;31189;38.790;-77.084;2022-12-07T09:18:27;101950.60;;;13.36;100.00
45441;BME280;31189;38.790;-77.084;2022-12-07T09:20:56;101947.57;;;11.83;100.00
45441;BME280;31189;38.790;-77.084;2022-12-07T09:23:24;101956.96;;;13.28;100.00
45441;BME280;31189;38.790;-77.084;2022-12-07T09:25:52;101969.45;;;13.98;100.00
45441;BME280;31189;38.790;-77.084;2022-12-07T09:28:20;101965.68;;;14.17;100.00
45441;BME280;31189;38.790;-77.084;2022-12-07T09:30:48;101973.72;;;14.04;100.00
45441;BME280;31189;38.790;-77.084;2022-12-07T09:33:16;101981.59;;;13.99;100.00
45441;BME280;31189;38.790;-77.084;2022-12-07T09:35:45;101984.99;;;14.64;100.00
45441;BME280;31189;38.790;-77.084;2022-12-07T09:38:13;101978.75;;;14.74;100.00
45441;BME280;31189;38.790;-77.084;2022-12-07T09:40:42;101963.62;;;14.77;100.00
45441;BME280;31189;38.790;-77.084;2022-12-07T09:43:13;101956.75;;;14.48;100.00
45441;BME280;31189;38.790;-77.084;2022-12-07T09:45:42;101949.42;;;14.90;100.00
45441;BME280;31189;38.790;-77.084;2022-12-07T09:48:17;101945.96;;;14.98;100.00
45441;BME280;31189;38.790;-77.084;2022-12-07T09:50:46;101941.52;;;14.32;100.00
45441;BME280;31189;38.790;-77.084;2022-12-07T09:53:17;101946.46;;;14.90;100.00
45441;BME280;31189;38.790;-77.084;2022-12-07T09:55:47;101945.83;;;14.23;100.00
45441;BME280;31189;38.790;-77.084;2022-12-07T09:58:21;101946.23;;;14.79;100.00
45441;BME280;31189;38.790;-77.084;2022-12-07T10:00:50;101949.90;;;14.56;100.00
45441;BME280;31189;38.790;-77.084;2022-12-07T10:03:21;101950.16;;;14.24;100.00
45441;BME280;31189;38.790;-77.084;2022-12-07T10:05:51;101937.49;;;14.54;100.00
45441;BME280;31189;38.790;-77.084;2022-12-07T10:08:19;101942.68;;;14.46;100.00
45441;BME280;31189;38.790;-77.084;2022-12-07T10:10:51;101942.16;;;14.22;100.00
45441;BME280;31189;38.790;-77.084;2022-12-07T10:13:21;101934.28;;;14.78;100.00
45441;BME280;31189;38.790;-77.084;2022-12-07T10:15:51;101944.40;;;14.56;100.00
45441;BME280;31189;38.790;-77.084;2022-12-07T10:18:26;101971.90;;;13.91;100.00
45441;BME280;31189;38.790;-77.084;2022-12-07T10:21:09;101961.31;;;14.60;100.00
45441;BME280;31189;38.790;-77.084;2022-12-07T10:23:40;101977.58;;;13.35;100.00
45441;BME280;31189;38.790;-77.084;2022-12-07T10:26:26;101973.02;;;14.45;100.00
45441;BME280;31189;38.790;-77.084;2022-12-07T10:28:55;101974.04;;;13.30;100.00
45441;BME280;31189;38.790;-77.084;2022-12-07T10:31:26;101977.09;;;14.34;100.00
45441;BME280;31189;38.790;-77.084;2022-12-07T10:33:55;101980.96;;;14.32;100.00
45441;BME280;31189;38.790;-77.084;2022-12-07T10:36:25;101971.47;;;13.63;100.00
45441;BME280;31189;38.790;-77.084;2022-12-07T10:39:00;101960.10;;;14.44;100.00
45441;BME280;31189;38.790;-77.084;2022-12-07T10:41:28;101953.92;;;15.37;100.00
45441;BME280;31189;38.790;-77.084;2022-12-07T10:43:57;101947.80;;;14.53;100.00
45441;BME280;31189;38.790;-77.084;2022-12-07T10:47:14;101980.28;;;15.41;100.00
45441;BME280;31189;38.790;-77.084;2022-12-07T10:50:02;101975.96;;;13.16;100.00
45441;BME280;31189;38.790;-77.084;2022-12-07T10:52:45;101991.03;;;13.58;100.00
45441;BME280;31189;38.790;-77.084;2022-12-07T10:55:22;101997.48;;;14.31;100.00
45441;BME280;31189;38.790;-77.084;2022-12-07T10:58:03;101997.29;;;15.12;100.00
45441;BME280;31189;38.790;-77.084;2022-12-07T11:00:39;102005.05;;;14.63;100.00
45441;BME280;31189;38.790;-77.084;2022-12-07T11:03:24;101994.35;;;13.71;100.00
45441;BME280;31189;38.790;-77.084;2022-12-07T11:06:03;101980.12;;;15.29;100.00
45441;BME280;31189;38.790;-77.084;2022-12-07T11:08:49;101988.53;;;15.25;100.00
45441;BME280;31189;38.790;-77.084;2022-12-07T11:11:24;101994.59;;;15.33;100.00
45441;BME280;31189;38.790;-77.084;2022-12-07T11:14:03;101998.03;;;13.31;100.00
45441;BME280;31189;38.790;-77.084;2022-12-07T11:16:53;101997.92;;;14.33;100.00
45441;BME280;31189;38.790;-77.084;2022-12-07T11:19:50;101993.84;;;14.92;100.00
45441;BME280;31189;38.790;-77.084;2022-12-07T11:22:28;101999.62;;;15.20;100.00
45441;BME280;31189;38.790;-77.084;2022-12-07T11:25:14;102000.70;;;14.45;100.00
45441;BME280;31189;38.790;-77.084;2022-12-07T11:27:50;101992.17;;;15.43;100.00
45441;BME280;31189;38.790;-77.084;2022-12-07T11:30:24;101995.75;;;15.77;100.00
45441;BME280;31189;38.790;-77.084;2022-12-07T11:33:09;102011.03;;;15.44;100.00
45441;BME280;31189;38.790;-77.084;2022-12-07T11:35:50;102004.50;;;15.22;100.00
45441;BME280;31189;38.790;-77.084;2022-12-07T11:38:21;102009.10;;;15.83;100.00
45441;BME280;31189;38.790;-77.084;2022-12-07T11:40:53;101999.09;;;14.65;100.00
45441;BME280;31189;38.790;-77.084;2022-12-07T11:43:27;102015.68;;;15.29;100.00
45441;BME280;31189;38.790;-77.084;2022-12-07T11:46:00;102043.12;;;14.84;100.00
45441;BME280;31189;38.790;-77.084;2022-12-07T11:48:35;102044.45;;;15.00;100.00
45441;BME280;31189;38.790;-77.084;2022-12-07T11:51:09;102021.67;;;15.36;100.00
45441;BME280;31189;38.790;-77.084;2022-12-07T11:53:41;102014.63;;;15.12;100.00
45441;BME280;31189;38.790;-77.084;2022-12-07T11:56:13;102006.05;;;14.90;100.00
45441;BME280;31189;38.790;-77.084;2022-12-07T11:58:48;102008.10;;;14.98;100.00
45441;BME280;31189;38.790;-77.084;2022-12-07T12:01:33;102008.51;;;15.44;100.00
45441;BME280;31189;38.790;-77.084;2022-12-07T12:04:13;102002.68;;;15.02;100.00
45441;BME280;31189;38.790;-77.084;2022-12-07T12:06:46;102009.13;;;15.27;100.00
45441;BME280;31189;38.790;-77.084;2022-12-07T12:09:16;101999.33;;;14.76;100.00
45441;BME280;31189;38.790;-77.084;2022-12-07T12:12:00;101986.45;;;14.99;100.00
45441;BME280;31189;38.790;-77.084;2022-12-07T12:14:43;101985.91;;;15.08;100.00
45441;BME280;31189;38.790;-77.084;2022-12-07T12:18:13;102001.54;;;14.82;100.00
45441;BME280;31189;38.790;-77.084;2022-12-07T12:20:47;102015.82;;;13.91;100.00
45441;BME280;31189;38.790;-77.084;2022-12-07T12:23:20;102040.14;;;14.66;100.00
45441;BME280;31189;38.790;-77.084;2022-12-07T12:25:52;102030.27;;;14.34;100.00
45441;BME280;31189;38.790;-77.084;2022-12-07T12:28:25;102046.11;;;14.22;100.00
45441;BME280;31189;38.790;-77.084;2022-12-07T12:31:14;102044.47;;;14.12;100.00
45441;BME280;31189;38.790;-77.084;2022-12-07T12:33:45;102038.25;;;13.19;100.00
45441;BME280;31189;38.790;-77.084;2022-12-07T12:36:21;102038.34;;;14.34;100.00
45441;BME280;31189;38.790;-77.084;2022-12-07T12:38:51;102038.34;;;14.60;100.00
45441;BME280;31189;38.790;-77.084;2022-12-07T12:41:55;102023.67;;;13.62;100.00
45441;BME280;31189;38.790;-77.084;2022-12-07T12:44:40;102013.39;;;14.09;100.00